createdAt,value
2022-09-30T00:01:26.827Z,9.30
2022-09-30T00:03:57.586Z,8.63
2022-09-30T00:06:26.439Z,9.93
2022-09-30T00:08:53.811Z,10.35
2022-09-30T00:11:29.047Z,8.18
2022-09-30T00:13:58.260Z,6.13
2022-09-30T00:16:29.671Z,8.20
2022-09-30T00:18:58.371Z,9.60
2022-09-30T00:21:25.611Z,8.00
2022-09-30T00:23:52.799Z,7.78
2022-09-30T00:26:21.420Z,6.25
2022-09-30T00:28:56.940Z,7.15
2022-09-30T00:31:25.274Z,7.22
2022-09-30T00:34:08.461Z,8.45
2022-09-30T00:36:46.802Z,10.25
2022-09-30T00:39:26.057Z,11.00
2022-09-30T00:41:57.034Z,6.25
2022-09-30T00:44:46.673Z,6.82
2022-09-30T00:47:31.177Z,5.97
2022-09-30T00:50:12.321Z,5.75
2022-09-30T00:52:39.472Z,7.13
2022-09-30T00:55:13.474Z,4.82
2022-09-30T00:57:40.843Z,6.32
2022-09-30T01:00:16.935Z,5.97
2022-09-30T01:02:45.709Z,4.82
2022-09-30T01:05:13.410Z,9.30
2022-09-30T01:07:40.292Z,1.73
2022-09-30T01:10:07.297Z,0.65
2022-09-30T01:12:34.275Z,2.22
2022-09-30T01:15:02.076Z,0.93
2022-09-30T01:17:47.014Z,0.70
2022-09-30T01:20:35.458Z,1.83
2022-09-30T01:23:22.669Z,1.70
2022-09-30T01:26:04.796Z,0.65
2022-09-30T01:29:02.098Z,2.65
2022-09-30T01:35:17.433Z,4.78
2022-09-30T01:37:59.520Z,3.72
2022-09-30T01:40:56.428Z,0.30
2022-09-30T01:43:47.642Z,2.10
2022-09-30T01:46:52.928Z,1.48
2022-09-30T01:49:31.890Z,0.65
2022-09-30T01:52:04.366Z,1.52
2022-09-30T01:54:47.284Z,0.55
2022-09-30T01:57:20.511Z,1.65
2022-09-30T02:00:08.197Z,0.73
2022-09-30T02:02:49.155Z,2.97
2022-09-30T02:05:40.926Z,1.10
2022-09-30T02:08:19.615Z,1.42
2022-09-30T02:11:08.557Z,1.05
2022-09-30T02:14:00.167Z,1.90
2022-09-30T02:16:37.537Z,2.65
2022-09-30T02:19:25.457Z,1.08
2022-09-30T02:22:12.089Z,1.95
2022-09-30T02:24:43.272Z,1.95
2022-09-30T02:27:15.462Z,1.52
2022-09-30T02:29:50.228Z,2.13
2022-09-30T02:32:26.965Z,1.98
2022-09-30T02:35:01.799Z,2.35
2022-09-30T02:37:34.583Z,1.38
2022-09-30T02:40:25.045Z,3.70
2022-09-30T02:42:52.146Z,1.75
2022-09-30T02:45:23.000Z,3.20
2022-09-30T02:48:10.845Z,1.45
2022-09-30T02:50:51.910Z,1.20
2022-09-30T02:53:33.788Z,0.60
2022-09-30T02:56:12.720Z,0.88
2022-09-30T02:58:41.325Z,0.68
2022-09-30T03:01:12.348Z,0.35
2022-09-30T03:03:44.461Z,1.48
2022-09-30T03:06:12.349Z,1.20
2022-09-30T03:08:39.291Z,2.03
2022-09-30T03:11:07.633Z,1.10
2022-09-30T03:14:05.558Z,2.55
2022-09-30T03:17:00.690Z,3.47
2022-09-30T03:19:46.245Z,2.38
2022-09-30T03:22:25.112Z,2.88
2022-09-30T03:25:10.839Z,2.30
2022-09-30T03:27:52.708Z,2.33
2022-09-30T03:30:24.892Z,1.45
2022-09-30T03:33:24.459Z,1.58
2022-09-30T03:36:20.482Z,4.10
2022-09-30T03:39:05.561Z,2.17
2022-09-30T03:41:38.405Z,2.40
2022-09-30T03:44:09.470Z,2.97
2022-09-30T03:49:46.550Z,1.10
2022-09-30T03:52:14.971Z,0.75
2022-09-30T03:54:58.631Z,1.75
2022-09-30T03:57:30.389Z,2.03
2022-09-30T03:59:58.200Z,2.72
2022-09-30T04:02:25.707Z,2.95
2022-09-30T04:04:52.630Z,2.80
2022-09-30T04:07:19.683Z,1.73
2022-09-30T04:09:46.832Z,1.45
2022-09-30T04:12:13.852Z,2.42
2022-09-30T04:14:40.566Z,2.30
2022-09-30T04:17:07.324Z,1.27
2022-09-30T04:19:40.254Z,4.00
2022-09-30T04:22:08.315Z,1.67
2022-09-30T04:24:35.856Z,2.40
2022-09-30T04:27:03.556Z,1.58
2022-09-30T04:29:30.753Z,4.65
2022-09-30T04:31:57.952Z,1.63
2022-09-30T04:34:25.234Z,1.70
2022-09-30T04:36:55.374Z,1.85
2022-09-30T04:39:22.653Z,1.67
2022-09-30T04:41:50.528Z,0.80
2022-09-30T04:44:17.772Z,1.50
2022-09-30T04:46:44.510Z,1.38
2022-09-30T04:49:11.682Z,2.92
2022-09-30T04:51:38.554Z,3.03
2022-09-30T04:54:05.730Z,3.60
2022-09-30T04:56:33.017Z,2.13
2022-09-30T04:58:59.885Z,2.42
2022-09-30T05:01:26.604Z,2.80
2022-09-30T05:03:54.602Z,2.42
2022-09-30T05:06:21.432Z,1.63
2022-09-30T05:08:48.520Z,2.20
2022-09-30T05:11:19.957Z,2.30
2022-09-30T05:13:47.817Z,2.85
2022-09-30T05:16:15.621Z,2.75
2022-09-30T05:18:45.600Z,6.80
2022-09-30T05:21:18.362Z,4.35
2022-09-30T05:23:45.415Z,4.20
2022-09-30T05:26:12.986Z,3.45
2022-09-30T05:28:41.278Z,3.58
2022-09-30T05:31:08.640Z,4.90
2022-09-30T05:33:36.296Z,3.80
2022-09-30T05:36:08.252Z,4.22
2022-09-30T05:38:36.048Z,9.20
2022-09-30T05:41:08.459Z,4.07
2022-09-30T05:43:38.775Z,5.60
2022-09-30T05:46:06.051Z,4.15
2022-09-30T05:48:32.822Z,7.55
2022-09-30T05:51:01.668Z,3.72
2022-09-30T05:53:31.184Z,4.03
2022-09-30T05:55:58.618Z,4.55
2022-09-30T05:58:25.355Z,8.85
2022-09-30T06:00:52.464Z,4.63
2022-09-30T06:03:19.594Z,3.40
2022-09-30T06:05:46.817Z,4.32
2022-09-30T06:08:14.901Z,7.22
2022-09-30T06:10:44.122Z,4.13
2022-09-30T06:13:11.761Z,3.35
2022-09-30T06:15:39.623Z,2.90
2022-09-30T06:18:06.661Z,4.05
2022-09-30T06:20:34.284Z,3.65
2022-09-30T06:23:01.737Z,4.28
2022-09-30T06:25:30.033Z,3.67
2022-09-30T06:27:56.994Z,7.95
2022-09-30T06:30:24.260Z,3.53
2022-09-30T06:32:51.575Z,3.85
2022-09-30T06:35:19.524Z,5.93
2022-09-30T06:37:46.479Z,4.10
2022-09-30T06:40:13.241Z,6.03
2022-09-30T06:42:40.229Z,4.38
2022-09-30T06:45:07.774Z,4.85
2022-09-30T06:47:34.640Z,5.40
2022-09-30T06:50:02.998Z,5.40
2022-09-30T06:52:29.857Z,3.67
2022-09-30T06:54:57.028Z,4.45
2022-09-30T06:57:27.627Z,6.10
2022-09-30T06:59:55.620Z,5.45
2022-09-30T07:02:22.863Z,4.18
2022-09-30T07:04:50.233Z,3.85
2022-09-30T07:07:16.970Z,5.93
2022-09-30T07:09:43.683Z,5.88
2022-09-30T07:12:10.559Z,7.22
2022-09-30T07:14:37.777Z,4.93
2022-09-30T07:17:06.304Z,5.28
2022-09-30T07:19:35.202Z,6.35
2022-09-30T07:22:28.556Z,7.70
2022-09-30T07:24:57.804Z,7.72
2022-09-30T07:27:26.217Z,5.03
2022-09-30T07:30:14.231Z,7.70
2022-09-30T07:32:40.521Z,5.90
2022-09-30T07:35:07.666Z,6.72
2022-09-30T07:37:36.173Z,5.85
2022-09-30T07:40:06.188Z,8.88
2022-09-30T07:42:33.539Z,4.78
2022-09-30T07:45:01.717Z,12.30
2022-09-30T07:47:28.544Z,5.78
2022-09-30T07:49:55.324Z,5.00
2022-09-30T07:52:22.146Z,3.72
2022-09-30T07:54:50.751Z,5.00
2022-09-30T07:57:18.208Z,4.68
2022-09-30T07:59:45.485Z,3.13
2022-09-30T08:02:16.896Z,4.70
2022-09-30T08:18:02.680Z,6.18
2022-09-30T08:20:29.465Z,7.63
2022-09-30T08:22:56.236Z,6.55
2022-09-30T08:25:24.449Z,4.85
2022-09-30T08:27:51.446Z,3.22
2022-09-30T08:30:18.219Z,5.28
2022-09-30T08:32:45.360Z,5.45
2022-09-30T08:35:12.113Z,4.47
2022-09-30T08:37:38.874Z,2.90
2022-09-30T08:40:06.149Z,4.45
2022-09-30T08:42:57.383Z,3.00
2022-09-30T08:45:51.888Z,8.18
2022-09-30T08:48:52.856Z,3.65
2022-09-30T08:51:30.669Z,4.40
2022-09-30T08:54:02.368Z,5.97
2022-09-30T08:56:34.020Z,5.80
2022-09-30T08:59:33.031Z,4.22
2022-09-30T09:02:20.707Z,5.18
2022-09-30T09:04:49.732Z,3.85
2022-09-30T09:07:32.856Z,4.53
2022-09-30T09:10:30.351Z,3.95
2022-09-30T09:13:18.407Z,3.78
2022-09-30T09:16:06.276Z,2.05
2022-09-30T09:18:35.839Z,1.88
2022-09-30T09:21:42.331Z,2.63
2022-09-30T09:24:21.125Z,3.60
2022-09-30T09:26:49.894Z,2.65
2022-09-30T09:29:41.984Z,2.53
2022-09-30T09:32:17.883Z,2.03
2022-09-30T09:34:51.661Z,2.72
2022-09-30T09:37:50.461Z,1.83
2022-09-30T09:40:27.249Z,5.13
2022-09-30T09:43:06.374Z,1.52
2022-09-30T09:45:51.946Z,2.78
2022-09-30T09:48:19.127Z,0.60
2022-09-30T09:51:03.964Z,2.28
2022-09-30T09:53:48.046Z,1.48
2022-09-30T09:56:18.961Z,1.58
2022-09-30T09:59:05.276Z,5.82
2022-09-30T10:01:33.920Z,1.50
2022-09-30T10:04:11.767Z,0.65
2022-09-30T10:07:14.664Z,3.70
2022-09-30T10:09:43.177Z,2.60
2022-09-30T10:12:13.143Z,1.77
2022-09-30T10:15:04.918Z,1.40
2022-09-30T10:17:34.547Z,2.50
2022-09-30T10:20:24.621Z,1.02
2022-09-30T10:23:09.306Z,2.47
2022-09-30T10:25:36.527Z,1.45
2022-09-30T10:28:22.099Z,4.03
2022-09-30T10:31:08.099Z,1.35
2022-09-30T10:33:48.287Z,3.05
2022-09-30T10:36:18.761Z,1.63
2022-09-30T10:38:54.552Z,3.20
2022-09-30T10:41:29.252Z,3.83
2022-09-30T10:44:02.416Z,4.80
2022-09-30T10:46:40.384Z,2.10
2022-09-30T10:49:20.474Z,2.17
2022-09-30T10:51:47.325Z,4.97
2022-09-30T10:54:34.404Z,1.27
2022-09-30T10:57:04.648Z,2.15
2022-09-30T10:59:38.534Z,2.88
2022-09-30T11:02:39.782Z,3.13
2022-09-30T11:05:15.580Z,3.50
2022-09-30T11:07:48.943Z,2.33
2022-09-30T11:10:39.419Z,2.15
2022-09-30T11:13:29.644Z,3.63
2022-09-30T11:16:11.629Z,2.00
2022-09-30T11:18:43.347Z,2.10
2022-09-30T11:21:20.486Z,2.35
2022-09-30T11:24:02.437Z,4.35
2022-09-30T11:26:43.457Z,14.57
2022-09-30T11:29:39.472Z,1.55
2022-09-30T11:32:28.629Z,3.03
2022-09-30T11:35:16.560Z,2.90
2022-09-30T11:38:04.500Z,3.97
2022-09-30T11:40:35.328Z,2.95
2022-09-30T11:43:41.654Z,3.50
2022-09-30T11:46:23.526Z,3.65
2022-09-30T11:49:01.592Z,1.75
2022-09-30T11:51:47.804Z,3.92
2022-09-30T11:54:36.974Z,1.48
2022-09-30T11:57:26.022Z,1.55
2022-09-30T12:00:01.296Z,2.05
2022-09-30T12:02:40.652Z,3.15
2022-09-30T12:05:35.523Z,2.53
2022-09-30T12:08:11.334Z,4.43
2022-09-30T12:10:49.467Z,2.28
2022-09-30T12:13:26.729Z,3.33
2022-09-30T12:15:56.383Z,3.60
2022-09-30T12:18:30.418Z,3.50
2022-09-30T12:21:04.143Z,5.43
2022-09-30T12:23:44.809Z,3.40
2022-09-30T12:26:14.156Z,4.68
2022-09-30T12:29:08.873Z,1.75
2022-09-30T12:31:57.267Z,3.70
2022-09-30T12:34:36.750Z,2.58
2022-09-30T12:37:33.151Z,3.63
2022-09-30T12:40:13.532Z,4.72
2022-09-30T12:42:43.536Z,5.15
2022-09-30T12:45:47.948Z,4.85
2022-09-30T12:48:20.878Z,2.78
2022-09-30T12:50:57.557Z,3.53
2022-09-30T12:53:30.834Z,5.00
2022-09-30T12:56:13.543Z,3.80
2022-09-30T12:58:50.221Z,2.20
2022-09-30T13:01:22.831Z,4.43
2022-09-30T13:03:52.512Z,2.88
2022-09-30T13:06:21.399Z,4.10
2022-09-30T13:08:57.176Z,2.80
2022-09-30T13:11:39.748Z,2.90
2022-09-30T13:14:12.632Z,2.53
2022-09-30T13:17:18.202Z,3.47
2022-09-30T13:19:45.024Z,3.45
2022-09-30T13:22:21.027Z,3.80
2022-09-30T13:25:05.881Z,5.78
2022-09-30T13:27:39.128Z,3.38
2022-09-30T13:30:17.808Z,2.00
2022-09-30T13:32:52.153Z,2.70
2022-09-30T13:35:33.984Z,4.63
2022-09-30T13:38:15.901Z,2.58
2022-09-30T13:41:02.203Z,1.90
2022-09-30T13:43:39.584Z,2.15
2022-09-30T13:46:16.876Z,1.00
2022-09-30T13:48:51.296Z,3.50
2022-09-30T13:51:22.473Z,1.88
2022-09-30T13:53:56.997Z,2.17
2022-09-30T13:56:27.784Z,3.35
2022-09-30T13:59:03.803Z,3.00
2022-09-30T14:01:53.575Z,2.47
2022-09-30T14:04:32.070Z,2.38
2022-09-30T14:07:20.284Z,1.35
2022-09-30T14:10:16.096Z,4.60
2022-09-30T14:12:44.917Z,3.20
2022-09-30T14:15:22.598Z,1.95
2022-09-30T14:17:49.320Z,1.50
2022-09-30T14:20:29.820Z,1.50
2022-09-30T14:22:57.281Z,4.10
2022-09-30T14:25:24.720Z,3.80
2022-09-30T14:28:04.896Z,4.05
2022-09-30T14:31:02.902Z,3.92
2022-09-30T14:33:31.602Z,4.72
2022-09-30T14:36:02.328Z,4.72
2022-09-30T14:38:32.048Z,1.20
2022-09-30T14:41:08.428Z,3.85
2022-09-30T14:43:43.059Z,1.10
2022-09-30T14:46:42.829Z,2.20
2022-09-30T14:49:14.796Z,3.08
2022-09-30T14:51:44.662Z,2.00
2022-09-30T14:54:18.881Z,2.50
2022-09-30T14:56:46.151Z,1.73
2022-09-30T14:59:28.728Z,4.18
2022-09-30T15:02:00.777Z,6.30
2022-09-30T15:04:31.823Z,2.00
2022-09-30T15:07:01.220Z,3.50
2022-09-30T15:09:38.391Z,4.15
2022-09-30T15:12:25.365Z,2.65
2022-09-30T15:14:57.646Z,5.40
2022-09-30T15:17:29.586Z,9.05
2022-09-30T15:19:57.919Z,4.43
2022-09-30T15:22:28.204Z,4.45
2022-09-30T15:24:56.751Z,4.25
2022-09-30T15:27:28.257Z,3.28
2022-09-30T15:30:33.082Z,6.72
2022-09-30T15:33:02.568Z,4.07
2022-09-30T15:35:30.106Z,4.32
2022-09-30T15:38:16.647Z,5.68
2022-09-30T15:40:57.002Z,7.18
2022-09-30T15:43:35.668Z,8.30
2022-09-30T15:46:26.901Z,4.47
2022-09-30T15:48:59.150Z,6.45
2022-09-30T15:51:41.063Z,6.68
2022-09-30T15:54:31.819Z,7.38
2022-09-30T15:57:24.391Z,7.35
2022-09-30T16:00:00.187Z,5.85
2022-09-30T16:02:28.605Z,8.30
2022-09-30T16:04:56.291Z,7.60
2022-09-30T16:07:26.798Z,9.43
2022-09-30T16:09:55.696Z,10.15
2022-09-30T16:12:31.237Z,7.88
2022-09-30T16:15:14.269Z,7.35
2022-09-30T16:17:47.247Z,6.43
2022-09-30T16:20:14.264Z,6.38
2022-09-30T16:22:41.092Z,10.35
2022-09-30T16:25:16.880Z,12.02
2022-09-30T16:27:43.763Z,6.95
2022-09-30T16:30:15.762Z,10.88
2022-09-30T16:32:46.519Z,8.35
2022-09-30T16:35:20.012Z,12.23
2022-09-30T16:37:48.662Z,9.90
2022-09-30T16:40:24.542Z,14.65
2022-09-30T16:42:54.774Z,6.43
2022-09-30T16:45:22.123Z,11.55
2022-09-30T16:47:50.523Z,8.95
2022-09-30T16:50:32.677Z,6.90
2022-09-30T16:52:59.707Z,9.32
2022-09-30T16:55:27.381Z,9.23
2022-09-30T16:57:57.997Z,11.00
2022-09-30T17:00:29.266Z,12.02
2022-09-30T17:02:57.053Z,10.35
2022-09-30T17:05:25.713Z,14.27
2022-09-30T17:07:54.896Z,17.42
2022-09-30T17:10:30.756Z,17.42
2022-09-30T17:13:00.283Z,10.35
2022-09-30T17:15:28.968Z,13.63
2022-09-30T17:17:55.953Z,16.63
2022-09-30T17:20:23.329Z,14.98
2022-09-30T17:22:50.771Z,12.68
2022-09-30T17:25:18.667Z,10.90
2022-09-30T17:27:49.918Z,14.57
2022-09-30T17:30:18.800Z,13.07
2022-09-30T17:32:46.565Z,13.05
2022-09-30T17:35:13.795Z,12.80
2022-09-30T17:37:43.818Z,13.30
2022-09-30T17:40:32.049Z,13.90
2022-09-30T17:43:08.592Z,14.23
2022-09-30T17:45:36.345Z,15.52
2022-09-30T17:48:03.666Z,10.15
2022-09-30T17:50:30.811Z,12.45
2022-09-30T17:52:57.949Z,10.65
2022-09-30T17:55:24.952Z,10.23
2022-09-30T17:57:53.624Z,11.52
2022-09-30T18:00:20.669Z,8.50
2022-09-30T18:02:48.406Z,11.85
2022-09-30T18:05:20.364Z,7.50
2022-09-30T18:07:47.487Z,10.77
2022-09-30T18:10:14.230Z,8.70
2022-09-30T18:12:41.662Z,13.35
2022-09-30T18:15:09.850Z,10.90
2022-09-30T18:17:36.718Z,8.27
2022-09-30T18:20:03.782Z,7.57
2022-09-30T18:22:30.540Z,7.97
2022-09-30T18:25:16.060Z,6.93
2022-09-30T18:27:42.833Z,22.30
2022-09-30T18:30:11.692Z,12.13
2022-09-30T18:32:39.062Z,11.95
2022-09-30T18:35:12.237Z,16.90
2022-09-30T18:37:40.097Z,16.10
2022-09-30T18:40:08.100Z,19.95
2022-09-30T18:42:37.776Z,16.23
2022-09-30T18:45:06.305Z,13.07
2022-09-30T18:47:33.025Z,7.57
2022-09-30T18:49:59.768Z,19.75
2022-09-30T18:52:26.550Z,12.93
2022-09-30T18:54:53.292Z,11.60
2022-09-30T18:57:20.233Z,13.30
2022-09-30T18:59:47.625Z,11.02
2022-09-30T19:02:17.981Z,11.27
2022-09-30T19:04:44.783Z,12.73
2022-09-30T19:07:11.946Z,14.27
2022-09-30T19:09:40.916Z,10.43
2022-09-30T19:12:07.810Z,11.70
2022-09-30T19:14:35.491Z,15.65
2022-09-30T19:17:02.206Z,10.93
2022-09-30T19:19:29.499Z,13.50
2022-09-30T19:22:01.176Z,12.40
2022-09-30T19:24:28.248Z,14.95
2022-09-30T19:26:55.611Z,16.95
2022-09-30T19:29:23.540Z,12.38
2022-09-30T19:31:50.320Z,21.75
2022-09-30T19:34:28.544Z,20.50
2022-09-30T19:36:58.125Z,19.83
2022-09-30T19:39:28.633Z,14.65
2022-09-30T19:42:03.213Z,16.88
2022-09-30T19:44:31.337Z,16.25
2022-09-30T19:46:58.564Z,18.45
2022-09-30T19:49:25.355Z,13.85
2022-09-30T19:51:53.269Z,13.88
2022-09-30T19:54:37.899Z,24.60
2022-09-30T19:57:06.827Z,25.98
2022-09-30T19:59:34.301Z,14.48
2022-09-30T20:02:01.246Z,19.10
2022-09-30T20:04:29.532Z,12.77
2022-09-30T20:06:56.686Z,12.43
2022-09-30T20:09:24.258Z,16.58
2022-09-30T20:11:51.363Z,15.80
2022-09-30T20:14:36.911Z,13.35
2022-09-30T20:17:04.172Z,14.02
2022-09-30T20:19:31.289Z,10.65
2022-09-30T20:21:58.243Z,14.57
2022-09-30T20:24:25.928Z,14.18
2022-09-30T20:26:53.205Z,11.80
2022-09-30T20:29:20.586Z,14.02
2022-09-30T20:31:48.269Z,13.30
2022-09-30T20:34:17.186Z,11.20
2022-09-30T20:36:45.089Z,13.95
2022-09-30T20:39:12.102Z,15.85
2022-09-30T20:41:40.537Z,12.73
2022-09-30T20:44:13.116Z,12.77
2022-09-30T20:46:41.509Z,13.75
2022-09-30T20:49:08.731Z,11.30
2022-09-30T20:51:36.159Z,18.52
2022-09-30T20:54:03.369Z,22.65
2022-09-30T20:56:44.387Z,9.70
2022-09-30T20:59:17.166Z,14.02
2022-09-30T21:01:44.129Z,12.48
2022-09-30T21:04:11.053Z,12.02
2022-09-30T21:06:37.869Z,15.95
2022-09-30T21:09:05.570Z,11.57
2022-09-30T21:11:33.081Z,19.92
2022-09-30T21:14:00.711Z,14.48
2022-09-30T21:16:29.403Z,20.25
2022-09-30T21:18:56.713Z,15.30
2022-09-30T21:21:26.734Z,15.10
2022-09-30T21:23:59.245Z,17.17
2022-09-30T21:26:26.862Z,21.77
2022-09-30T21:28:53.970Z,14.93
2022-09-30T21:31:29.018Z,17.02
2022-09-30T21:34:01.166Z,15.70
2022-09-30T21:36:29.689Z,14.02
2022-09-30T21:39:01.570Z,15.90
2022-09-30T21:41:29.396Z,18.17
2022-09-30T21:43:56.272Z,14.48
2022-09-30T21:46:23.652Z,18.08
2022-09-30T21:48:52.926Z,18.77
2022-09-30T21:51:21.009Z,12.50
2022-09-30T21:53:48.737Z,13.57
2022-09-30T21:56:15.445Z,19.30
2022-09-30T21:58:42.196Z,20.20
2022-09-30T22:01:10.462Z,13.52
2022-09-30T22:03:38.447Z,9.43
2022-09-30T22:06:07.917Z,14.85
2022-09-30T22:08:41.912Z,13.52
2022-09-30T22:11:17.402Z,11.65
2022-09-30T22:13:47.183Z,9.80
2022-09-30T22:16:15.590Z,15.25
2022-09-30T22:18:43.215Z,15.15
2022-09-30T22:21:13.362Z,13.70
2022-09-30T22:23:40.535Z,14.80
2022-09-30T22:26:27.337Z,9.85
2022-09-30T22:28:57.599Z,10.35
2022-09-30T22:31:27.084Z,11.68
2022-09-30T22:34:15.201Z,10.45
2022-09-30T22:37:00.432Z,15.73
2022-09-30T22:39:27.423Z,16.10
2022-09-30T22:41:56.262Z,13.30
2022-09-30T22:44:25.619Z,11.27
2022-09-30T22:46:54.094Z,9.70
2022-09-30T22:49:21.721Z,15.35
2022-09-30T22:51:53.280Z,15.27
2022-09-30T22:54:20.815Z,9.57
2022-09-30T22:56:50.348Z,8.02
2022-09-30T22:59:18.759Z,11.50
2022-09-30T23:01:46.316Z,9.80
2022-09-30T23:04:16.616Z,8.98
2022-09-30T23:06:55.358Z,14.07
2022-09-30T23:09:22.711Z,8.23
2022-09-30T23:11:53.574Z,12.43
2022-09-30T23:14:21.829Z,13.73
2022-09-30T23:16:48.764Z,11.23
2022-09-30T23:19:15.615Z,13.90
2022-09-30T23:21:42.351Z,9.38
2022-09-30T23:24:09.262Z,9.38
2022-09-30T23:26:37.113Z,9.85
2022-09-30T23:29:07.076Z,10.93
2022-09-30T23:31:34.592Z,11.63
2022-09-30T23:34:03.576Z,7.63
2022-09-30T23:36:33.206Z,10.98
2022-09-30T23:39:12.768Z,7.15
2022-09-30T23:41:39.796Z,6.35
2022-09-30T23:44:06.766Z,6.40
2022-09-30T23:46:33.586Z,8.48
2022-09-30T23:49:00.257Z,5.65
2022-09-30T23:51:27.095Z,7.65
2022-09-30T23:53:54.300Z,7.40
2022-09-30T23:56:21.210Z,6.15
2022-09-30T23:58:48.258Z,9.50
